createdAt,value
2019-03-01T00:03:39.000Z,39.833
2019-03-01T00:13:39.000Z,39.819
2019-03-01T00:23:39.000Z,39.922
2019-03-01T00:33:39.000Z,39.909
2019-03-01T00:43:39.000Z,39.959
2019-03-01T00:53:39.000Z,39.848
2019-03-01T01:03:39.000Z,39.813
2019-03-01T01:13:39.000Z,39.907
2019-03-01T01:23:39.000Z,39.839
2019-03-01T01:33:39.000Z,39.858
2019-03-01T01:43:39.000Z,39.823
2019-03-01T01:53:41.000Z,39.819
2019-03-01T02:03:39.000Z,39.762
2019-03-01T02:13:39.000Z,39.868
2019-03-01T02:23:39.000Z,39.875
2019-03-01T02:33:39.000Z,39.787
2019-03-01T02:43:39.000Z,39.805
2019-03-01T02:53:39.000Z,39.75
2019-03-01T03:03:39.000Z,39.737
2019-03-01T03:13:39.000Z,39.82
2019-03-01T03:23:39.000Z,39.7
2019-03-01T03:33:39.000Z,39.773
2019-03-01T03:43:39.000Z,39.663
2019-03-01T03:53:39.000Z,39.639
2019-03-01T04:03:39.000Z,39.605
2019-03-01T04:13:39.000Z,39.539
2019-03-01T04:23:39.000Z,39.59
2019-03-01T04:33:39.000Z,39.511
2019-03-01T04:43:39.000Z,39.627
2019-03-01T04:53:39.000Z,39.519
2019-03-01T05:03:39.000Z,39.389
2019-03-01T05:13:40.000Z,39.409
2019-03-01T05:23:40.000Z,39.206
2019-03-01T05:33:40.000Z,39.226
2019-03-01T05:43:40.000Z,39.129
2019-03-01T05:53:40.000Z,39.054
2019-03-01T06:03:40.000Z,38.903
2019-03-01T06:13:40.000Z,38.663
2019-03-01T06:23:40.000Z,38.587
2019-03-01T06:33:40.000Z,38.545
2019-03-01T06:43:40.000Z,38.505
2019-03-01T06:53:40.000Z,38.398
2019-03-01T07:03:40.000Z,38.444
2019-03-01T07:13:40.000Z,38.371
2019-03-01T07:23:40.000Z,38.33
2019-03-01T07:33:40.000Z,38.393
2019-03-01T07:43:40.000Z,38.236
2019-03-01T07:53:40.000Z,38.283
2019-03-01T08:03:40.000Z,38.417
2019-03-01T08:13:40.000Z,38.37
2019-03-01T08:23:40.000Z,38.533
2019-03-01T08:33:40.000Z,38.544
2019-03-01T08:43:40.000Z,38.461
2019-03-01T08:53:40.000Z,38.43
2019-03-01T09:03:40.000Z,38.334
2019-03-01T09:13:40.000Z,38.302
2019-03-01T09:23:40.000Z,38.324
2019-03-01T09:33:40.000Z,38.327
2019-03-01T09:43:40.000Z,38.123
2019-03-01T09:53:40.000Z,38.08
2019-03-01T10:03:40.000Z,37.952
2019-03-01T10:13:40.000Z,37.876
2019-03-01T10:23:40.000Z,37.727
2019-03-01T10:33:40.000Z,37.728
2019-03-01T10:43:40.000Z,37.772
2019-03-01T10:53:40.000Z,37.685
2019-03-01T11:03:40.000Z,37.696
2019-03-01T11:13:40.000Z,37.599
2019-03-01T11:23:42.000Z,37.545
2019-03-01T11:33:40.000Z,37.544
2019-03-01T11:43:40.000Z,37.576
2019-03-01T11:53:40.000Z,37.501
2019-03-01T12:03:40.000Z,37.666
2019-03-01T12:13:40.000Z,37.524
2019-03-01T12:23:41.000Z,37.535
2019-03-01T12:33:40.000Z,37.654
2019-03-01T12:43:40.000Z,37.847
2019-03-01T12:53:40.000Z,37.795
2019-03-01T13:03:40.000Z,37.947
2019-03-01T13:13:40.000Z,37.982
2019-03-01T13:23:40.000Z,38.037
2019-03-01T13:33:40.000Z,38.22
2019-03-01T13:43:41.000Z,38.166
2019-03-01T13:53:41.000Z,38.166
2019-03-01T14:03:41.000Z,38.024
2019-03-01T14:13:41.000Z,38.157
2019-03-01T14:23:41.000Z,39.31
2019-03-01T14:33:41.000Z,39.772
2019-03-01T14:43:41.000Z,40.641
2019-03-01T14:53:41.000Z,41.368
2019-03-01T15:03:41.000Z,42.757
2019-03-01T15:13:41.000Z,43.62
2019-03-01T15:23:41.000Z,44.106
2019-03-01T15:33:41.000Z,44.501
2019-03-01T15:43:41.000Z,44.857
2019-03-01T15:53:41.000Z,44.763
2019-03-01T16:03:41.000Z,44.762
2019-03-01T16:13:41.000Z,44.898
2019-03-01T16:23:41.000Z,44.967
2019-03-01T16:33:41.000Z,45.527
2019-03-01T16:43:41.000Z,45.164
2019-03-01T16:53:41.000Z,45.547
2019-03-01T17:03:42.000Z,45.338
2019-03-01T17:13:41.000Z,45.274
2019-03-01T17:23:41.000Z,44.874
2019-03-01T17:33:41.000Z,45.5
2019-03-01T17:43:41.000Z,45.647
2019-03-01T17:53:41.000Z,45.884
2019-03-01T18:03:41.000Z,46.587
2019-03-01T18:13:41.000Z,45.524
2019-03-01T18:23:41.000Z,45.583
2019-03-01T18:43:41.000Z,45.876
2019-03-01T18:53:41.000Z,44.691
2019-03-01T19:03:41.000Z,44.874
2019-03-01T19:13:41.000Z,44.662
2019-03-01T19:23:43.000Z,44.887
2019-03-01T19:33:41.000Z,44.922
2019-03-01T19:43:41.000Z,45.088
2019-03-01T19:53:41.000Z,44.797
2019-03-01T20:03:41.000Z,44.885
2019-03-01T20:13:41.000Z,44.96
2019-03-01T20:23:41.000Z,45.375
2019-03-01T20:33:41.000Z,44.088
2019-03-01T20:43:41.000Z,44.371
2019-03-01T20:53:41.000Z,44.079
2019-03-01T21:03:42.000Z,44.101
2019-03-01T21:13:41.000Z,43.96
2019-03-01T21:23:41.000Z,43.894
2019-03-01T21:33:41.000Z,43.854
2019-03-01T21:43:42.000Z,43.938
2019-03-01T21:53:46.000Z,43.905
2019-03-01T22:03:42.000Z,43.812
2019-03-01T22:13:42.000Z,43.753
2019-03-01T22:23:42.000Z,43.905
2019-03-01T22:33:42.000Z,43.801
2019-03-01T22:43:42.000Z,43.593
2019-03-01T22:53:42.000Z,43.63
2019-03-01T23:03:45.000Z,43.607
2019-03-01T23:13:42.000Z,43.676
2019-03-01T23:23:46.000Z,43.519
2019-03-01T23:33:42.000Z,43.247
2019-03-01T23:43:42.000Z,43.297
